Погода Пуэрто-Малдонадона 2 недели

Арекина, Перу

16 - 29 июля
  • 16июля
    Сегодня
    +13°
    +25°
    Ясно и безоблачно
    ВремяПогодаТемператураВлажностьДавлениеВетер, м/сВероятность осадков
    01:00Ясно и безоблачно+15°C73 %748 мм2.3 м/с5 %
    04:00Ясно и безоблачно+13°C74 %748 мм2.3 м/с5 %
    07:00Ясно и безоблачно+15°C74 %749 мм0.9 м/с5 %
    10:00Ясно и безоблачно+21°C55 %750 мм2.1 м/с5 %
    13:00Ясно и безоблачно+24°C47 %748 мм2.0 м/с5 %
    16:00Ясно и безоблачно+25°C63 %746 мм1.9 м/с5 %
    19:00Ясно и безоблачно+19°C86 %747 мм1.6 м/с5 %
    22:00Ясно и безоблачно+17°C87 %747 мм1.7 м/с5 %
  • 17июля
    Среда
    +15°
    +27°
    Ясно и безоблачно
    ВремяПогодаТемператураВлажностьДавлениеВетер, м/сВероятность осадков
    01:00Ясно и безоблачно+16°C90 %747 мм1.6 м/с5 %
    04:00Ясно и безоблачно+15°C90 %747 мм1.0 м/с5 %
    07:00Ясно и безоблачно+15°C89 %749 мм0.6 м/с5 %
    10:00Ясно и безоблачно+23°C61 %750 мм2.2 м/с5 %
    13:00Ясно и безоблачно+26°C50 %748 мм2.5 м/с5 %
    16:00Ясно и безоблачно+26°C64 %746 мм2.2 м/с5 %
    19:00Ясно и безоблачно+22°C85 %747 мм0.4 м/с5 %
    22:00Ясно и безоблачно+18°C96 %747 мм1.5 м/с5 %
  • 18июля
    Четверг
    +15°
    +29°
    Ясно и безоблачно
    ВремяПогодаТемператураВлажностьДавлениеВетер, м/сВероятность осадков
    01:00Ясно и безоблачно+17°C93 %746 мм1.4 м/с5 %
    04:00Практически безоблачно+15°C98 %746 мм0.8 м/с5 %
    07:00Ясно и безоблачно+17°C96 %748 мм0.6 м/с5 %
    10:00Ясно и безоблачно+25°C66 %748 мм1.6 м/с5 %
    13:00Ясно и безоблачно+27°C48 %746 мм2.1 м/с5 %
    16:00Ясно и безоблачно+28°C64 %744 мм2.2 м/с5 %
    19:00Ясно и безоблачно+21°C90 %744 мм1.3 м/с5 %
    22:00Ясно и безоблачно+19°C91 %745 мм0.9 м/с5 %
  • 19июля
    Пятница
    +16°
    +29°
    Ясно и безоблачно
    ВремяПогодаТемператураВлажностьДавлениеВетер, м/сВероятность осадков
    01:00Ясно и безоблачно+17°C97 %744 мм1.6 м/с5 %
    04:00Облачно с прояснениями+16°C99 %745 мм1.5 м/с5 %
    07:00Пасмурно, сплошная облачность+17°C98 %746 мм0.7 м/с5 %
    10:00Ясно и безоблачно+25°C70 %748 мм2.2 м/с5 %
    13:00Ясно и безоблачно+29°C46 %746 мм2.8 м/с5 %
    16:00Ясно и безоблачно+29°C67 %744 мм2.3 м/с5 %
    19:00Ясно и безоблачно+23°C91 %744 мм2.4 м/с5 %
    22:00Ясно и безоблачно+21°C87 %745 мм1.0 м/с5 %
  • 20июля
    Суббота
    +18°
    +30°
    Ясно и безоблачно
    ВремяПогодаТемператураВлажностьДавлениеВетер, м/сВероятность осадков
    01:00Ясно и безоблачно+19°C93 %745 мм1.5 м/с5 %
    04:00Ясно и безоблачно+18°C93 %745 мм1.5 м/с5 %
    07:00Ясно и безоблачно+18°C93 %747 мм0.7 м/с5 %
    10:00Ясно и безоблачно+27°C66 %748 мм1.9 м/с5 %
    13:00Ясно и безоблачно+30°C49 %746 мм2.2 м/с5 %
    16:00Ясно и безоблачно+30°C68 %744 мм2.3 м/с5 %
    19:00Ясно и безоблачно+24°C92 %744 мм1.8 м/с5 %
    22:00Ясно и безоблачно+21°C90 %745 мм1.6 м/с5 %
Мы используем cookies
Соглашаюсь